Time;durP1;ratioP1;P1;durP2;ratioP2;P2;SDS_P1;SDS_P2;PMS_P1;PMS_P2;Temp;Humidity;BMP_temperature;BMP_pressure;BME280_temperature;BME280_humidity;BME280_pressure;Samples;Min_cycle;Max_cycle;Signal;HPM_P1;HPM_P2
2023/08/03 00:00:37;;;;;;;;;;;;;;;25.71;62.95;100189.78;7397946;19;1859;-42
2023/08/03 00:03:05;;;;;;;;;;;;;;;25.74;62.64;100183.97;7399367;19;1627;-42
2023/08/03 00:05:33;;;;;;;;;;;;;;;25.72;62.70;100175.19;7399130;19;1399;-42
2023/08/03 00:08:01;;;;;;;;;;;;;;;25.71;62.98;100174.38;7400227;19;1285;-42
2023/08/03 00:10:31;;;;;;;;;;;;;;;25.72;62.62;100192.28;7398740;19;1250;-42
2023/08/03 00:13:00;;;;;;;;;;;;;;;25.75;62.76;100185.66;7398760;19;1241;-42
2023/08/03 00:15:28;;;;;;;;;;;;;;;25.70;62.60;100183.50;7399171;19;1643;-42
2023/08/03 00:17:59;;;;;;;;;;;;;;;25.14;62.87;100102.16;7398089;19;1234;-42
2023/08/03 00:20:27;;;;;;;;;;;;;;;25.72;62.64;100186.03;7397779;19;1840;-42
2023/08/03 00:22:56;;;;;;;;;;;;;;;25.65;62.83;100180.56;7398410;19;1205;-42
2023/08/03 00:25:24;;;;;;;;;;;;;;;25.69;62.77;100187.25;7398174;19;1285;-42
2023/08/03 00:27:52;;;;;;;;;;;;;;;25.63;62.85;100185.31;7399312;19;1481;-42
2023/08/03 00:30:21;;;;;;;;;;;;;;;25.67;62.79;100188.50;7398411;19;1544;-43
2023/08/03 00:32:49;;;;;;;;;;;;;;;25.67;62.73;100175.78;7398206;19;1158;-42
2023/08/03 00:35:20;;;;;;;;;;;;;;;25.68;62.88;100180.16;7398702;19;1615;-42
2023/08/03 00:37:48;;;;;;;;;;;;;;;25.71;62.71;100187.06;7398488;19;1845;-42
2023/08/03 00:40:17;;;;;;;;;;;;;;;25.66;62.83;100171.38;7397635;19;1845;-42
2023/08/03 00:42:45;;;;;;;;;;;;;;;25.63;62.69;100192.63;7398032;19;1253;-42
2023/08/03 00:45:14;;;;;;;;;;;;;;;25.70;62.85;100182.66;7398030;19;1556;-42
2023/08/03 00:47:42;;;;;;;;;;;;;;;25.74;62.60;100183.97;7398544;19;1522;-42
2023/08/03 00:50:10;;;;;;;;;;;;;;;25.69;62.54;100191.84;7397872;19;1615;-42
2023/08/03 00:52:42;;;;;;;;;;;;;;;25.71;62.59;100189.78;7397653;19;1407;-42
2023/08/03 00:55:11;;;;;;;;;;;;;;;25.73;62.59;100204.78;7397815;19;1556;-42
2023/08/03 00:57:39;;;;;;;;;;;;;;;25.70;62.66;100191.63;7397667;19;1242;-42
2023/08/03 01:00:08;;;;;;;;;;;;;;;25.67;62.88;100188.50;7396942;19;1821;-42
2023/08/03 01:02:36;;;;;;;;;;;;;;;25.68;62.65;100185.56;7396861;19;1221;-42
2023/08/03 01:05:05;;;;;;;;;;;;;;;25.69;62.66;100198.09;7397319;19;1284;-42
2023/08/03 01:07:34;;;;;;;;;;;;;;;25.69;62.74;100189.13;7398408;19;1161;-42
2023/08/03 01:10:05;;;;;;;;;;;;;;;25.72;62.58;100203.09;7397289;19;1249;-42
2023/08/03 01:12:34;;;;;;;;;;;;;;;25.73;62.68;100188.53;7396926;19;1588;-42
2023/08/03 01:15:02;;;;;;;;;;;;;;;25.68;62.52;100198.28;7397311;19;1743;-42
2023/08/03 01:17:31;;;;;;;;;;;;;;;25.71;62.69;100204.16;7393334;19;1722;-42
2023/08/03 01:19:59;;;;;;;;;;;;;;;25.69;62.81;100184.56;7397376;19;1873;-42
2023/08/03 01:22:27;;;;;;;;;;;;;;;25.62;62.65;100208.00;7396022;19;1387;-42
2023/08/03 01:24:58;;;;;;;;;;;;;;;25.62;62.83;100191.75;7397522;19;1833;-42
2023/08/03 01:27:27;;;;;;;;;;;;;;;25.71;62.93;100206.03;7398728;19;1167;-42
2023/08/03 01:29:55;;;;;;;;;;;;;;;25.68;62.99;100201.81;7398711;19;1129;-42
2023/08/03 01:32:23;;;;;;;;;;;;;;;25.63;63.00;100198.03;7398180;19;1831;-42
2023/08/03 01:34:52;;;;;;;;;;;;;;;25.60;62.72;100199.25;7397497;19;2061;-42
2023/08/03 01:37:20;;;;;;;;;;;;;;;25.66;62.77;100195.75;7397360;19;1423;-42
2023/08/03 01:39:48;;;;;;;;;;;;;;;25.68;62.77;100190.97;7397449;19;1847;-42
2023/08/03 01:42:19;;;;;;;;;;;;;;;25.59;62.72;100186.75;7397150;19;1803;-42
2023/08/03 01:44:48;;;;;;;;;;;;;;;25.61;62.93;100187.41;7395922;19;1225;-42
2023/08/03 01:47:16;;;;;;;;;;;;;;;25.55;62.94;100196.28;7395799;19;1616;-42
2023/08/03 01:49:45;;;;;;;;;;;;;;;25.55;63.30;100190.88;7395718;19;1267;-42
2023/08/03 01:52:13;;;;;;;;;;;;;;;25.59;62.82;100194.88;7395748;19;1228;-42
2023/08/03 01:54:41;;;;;;;;;;;;;;;25.56;63.21;100198.78;7395506;19;1416;-42
2023/08/03 01:57:09;;;;;;;;;;;;;;;25.59;63.09;100197.59;7395217;19;1501;-42
2023/08/03 01:59:40;;;;;;;;;;;;;;;25.61;63.07;100206.34;7395877;19;1272;-42
2023/08/03 02:02:09;;;;;;;;;;;;;;;25.60;62.87;100215.47;7393637;19;1845;-42
2023/08/03 02:04:37;;;;;;;;;;;;;;;25.60;62.91;100210.94;7395916;19;1941;-42
2023/08/03 02:07:10;;;;;;;;;;;;;;;25.56;62.92;100204.19;7394156;19;1579;-42
2023/08/03 02:09:38;;;;;;;;;;;;;;;25.60;62.81;100201.94;7393781;19;1537;-42
2023/08/03 02:12:07;;;;;;;;;;;;;;;25.55;62.88;100190.88;7396186;19;2057;-42
2023/08/03 02:14:35;;;;;;;;;;;;;;;25.62;62.83;100218.00;7395710;19;1198;-42
2023/08/03 02:17:06;;;;;;;;;;;;;;;25.52;63.27;100210.19;7395137;19;1814;-42
2023/08/03 02:19:35;;;;;;;;;;;;;;;25.55;63.03;100215.25;7396350;19;1692;-42
2023/08/03 02:22:03;;;;;;;;;;;;;;;25.56;62.81;100203.38;7395784;19;1853;-42
2023/08/03 02:24:31;;;;;;;;;;;;;;;25.56;62.89;100208.78;7395998;19;1787;-42
2023/08/03 02:26:59;;;;;;;;;;;;;;;25.58;62.83;100212.13;7396200;19;1834;-42
2023/08/03 02:29:28;;;;;;;;;;;;;;;25.50;63.02;100188.72;7398783;19;1957;-42
2023/08/03 02:31:56;;;;;;;;;;;;;;;25.56;63.32;100214.19;7404045;19;1333;-42
2023/08/03 02:34:27;;;;;;;;;;;;;;;25.54;63.10;100210.84;7400033;19;1428;-42
2023/08/03 02:36:55;;;;;;;;;;;;;;;25.58;62.95;100218.38;7402394;19;1715;-42
2023/08/03 02:39:23;;;;;;;;;;;;;;;25.57;63.14;100211.31;7401255;19;1833;-42
2023/08/03 02:41:52;;;;;;;;;;;;;;;25.58;62.94;100214.84;7397164;19;1908;-42
2023/08/03 02:44:21;;;;;;;;;;;;;;;25.55;62.96;100217.94;7399658;19;1253;-42
2023/08/03 02:46:49;;;;;;;;;;;;;;;25.56;63.05;100208.78;7402013;19;1537;-42
2023/08/03 02:49:18;;;;;;;;;;;;;;;25.57;63.01;100221.31;7402041;19;1546;-42
2023/08/03 02:51:49;;;;;;;;;;;;;;;25.55;62.87;100220.66;7401656;19;1928;-42
2023/08/03 02:54:17;;;;;;;;;;;;;;;25.53;63.17;100218.13;7400963;19;1147;-42
2023/08/03 02:56:45;;;;;;;;;;;;;;;25.54;63.05;100221.69;7403724;19;1206;-42
2023/08/03 02:59:18;;;;;;;;;;;;;;;25.56;63.25;100225.03;7402237;19;1601;-42
2023/08/03 03:01:46;;;;;;;;;;;;;;;25.52;63.17;100229.16;7400823;19;1940;-42
2023/08/03 03:04:15;;;;;;;;;;;;;;;25.60;62.85;100224.47;7401406;19;1542;-42
2023/08/03 03:06:43;;;;;;;;;;;;;;;25.62;62.91;100223.44;7401266;19;1850;-42
2023/08/03 03:09:14;;;;;;;;;;;;;;;25.61;62.65;100222.59;7401977;19;1783;-42
2023/08/03 03:11:42;;;;;;;;;;;;;;;25.55;63.16;100234.19;7401338;19;1750;-42
2023/08/03 03:14:10;;;;;;;;;;;;;;;25.58;63.25;100239.22;7401518;19;1383;-42
2023/08/03 03:16:38;;;;;;;;;;;;;;;25.60;63.07;100235.31;7401591;19;1118;-42
2023/08/03 03:19:07;;;;;;;;;;;;;;;25.57;62.94;100241.09;7402051;19;1932;-42
2023/08/03 03:21:35;;;;;;;;;;;;;;;25.56;62.96;100233.16;7399323;19;1960;-42
2023/08/03 03:24:03;;;;;;;;;;;;;;;25.58;62.87;100226.50;7398761;19;1500;-42
2023/08/03 03:26:34;;;;;;;;;;;;;;;25.63;62.92;100230.53;7399984;19;1536;-42
2023/08/03 03:29:03;;;;;;;;;;;;;;;25.61;62.75;100233.44;7400343;19;1679;-42
2023/08/03 03:31:31;;;;;;;;;;;;;;;25.61;62.68;100238.84;7400798;19;1491;-42
2023/08/03 03:33:59;;;;;;;;;;;;;;;25.57;62.95;100243.78;7400863;19;1130;-42
2023/08/03 03:36:27;;;;;;;;;;;;;;;25.61;62.86;100238.84;7401837;19;1038;-42
2023/08/03 03:38:56;;;;;;;;;;;;;;;25.63;62.79;100236.78;7398779;19;1528;-42
2023/08/03 03:41:24;;;;;;;;;;;;;;;25.63;62.79;100236.78;7399898;19;1858;-42
2023/08/03 03:43:55;;;;;;;;;;;;;;;25.60;62.73;100237.16;7399161;19;1730;-42
2023/08/03 03:46:23;;;;;;;;;;;;;;;25.62;62.96;100228.84;7400446;19;1656;-42
2023/08/03 03:48:52;;;;;;;;;;;;;;;25.59;62.71;100232.78;7400161;19;1406;-42
2023/08/03 03:51:21;;;;;;;;;;;;;;;25.61;62.91;100230.72;7400346;19;1747;-42
2023/08/03 03:53:50;;;;;;;;;;;;;;;25.63;62.85;100230.53;7401008;19;1062;-42
2023/08/03 03:56:18;;;;;;;;;;;;;;;25.63;62.78;100225.13;7398727;19;1520;-42
2023/08/03 03:58:46;;;;;;;;;;;;;;;25.62;62.59;100240.50;7399990;19;1851;-42
2023/08/03 04:01:17;;;;;;;;;;;;;;;25.65;62.69;100240.13;7397355;19;1832;-42
2023/08/03 04:03:45;;;;;;;;;;;;;;;25.67;62.70;100250.78;7399635;19;1221;-42
2023/08/03 04:06:13;;;;;;;;;;;;;;;25.74;62.48;100255.19;7397541;19;1261;-42
2023/08/03 04:08:42;;;;;;;;;;;;;;;25.80;62.30;100243.63;7397985;19;1573;-42
2023/08/03 04:11:10;;;;;;;;;;;;;;;25.83;62.15;100252.41;7398957;19;1380;-42
2023/08/03 04:13:38;;;;;;;;;;;;;;;25.77;62.09;100241.28;7397404;19;1276;-42
2023/08/03 04:16:06;;;;;;;;;;;;;;;25.76;62.61;100242.31;7398574;19;1553;-42
2023/08/03 04:18:39;;;;;;;;;;;;;;;25.92;62.02;100251.25;7394469;19;1334;-42
2023/08/03 04:21:07;;;;;;;;;;;;;;;25.89;62.10;100249.75;7398123;19;1838;-42
2023/08/03 04:23:35;;;;;;;;;;;;;;;25.93;62.03;100269.19;7397399;19;1552;-42
2023/08/03 04:26:04;;;;;;;;;;;;;;;25.99;62.10;100258.41;7396541;19;1346;-42
2023/08/03 04:28:32;;;;;;;;;;;;;;;25.93;61.71;100250.22;7397905;19;1684;-42
2023/08/03 04:31:00;;;;;;;;;;;;;;;25.97;61.85;100260.47;7397981;19;1259;-42
2023/08/03 04:33:28;;;;;;;;;;;;;;;25.92;62.09;100262.09;7398602;19;1568;-42
2023/08/03 04:35:59;;;;;;;;;;;;;;;25.98;62.02;100297.38;7398294;19;1605;-42
2023/08/03 04:38:28;;;;;;;;;;;;;;;25.95;62.13;100261.72;7398224;19;1552;-42
2023/08/03 04:41:00;;;;;;;;;;;;;;;26.02;61.86;100272.59;7398102;19;1845;-42
2023/08/03 04:43:28;;;;;;;;;;;;;;;25.91;61.99;100272.09;7398497;19;1249;-42
2023/08/03 04:45:56;;;;;;;;;;;;;;;25.78;62.58;100266.50;7399216;19;1028;-42
2023/08/03 04:48:24;;;;;;;;;;;;;;;25.80;62.20;100261.72;7399099;19;1889;-42
2023/08/03 04:50:53;;;;;;;;;;;;;;;26.03;61.69;100253.44;7396680;19;1479;-42
2023/08/03 04:53:24;;;;;;;;;;;;;;;26.09;61.62;100263.50;7395322;19;1405;-42
2023/08/03 04:55:52;;;;;;;;;;;;;;;25.91;62.03;100260.41;7398988;19;1801;-42
2023/08/03 04:58:20;;;;;;;;;;;;;;;25.96;61.73;100263.38;7397936;19;1449;-42
2023/08/03 05:00:49;;;;;;;;;;;;;;;26.09;61.56;100263.50;7397061;19;1941;-42
2023/08/03 05:03:17;;;;;;;;;;;;;;;25.93;62.00;100261.91;7397179;19;1704;-42
2023/08/03 05:05:45;;;;;;;;;;;;;;;25.90;62.31;100266.81;7397851;19;1499;-42
2023/08/03 05:08:14;;;;;;;;;;;;;;;25.87;62.34;100275.34;7398905;19;1129;-42
2023/08/03 05:10:45;;;;;;;;;;;;;;;26.06;61.55;100266.59;7395653;19;1866;-42
2023/08/03 05:13:13;;;;;;;;;;;;;;;25.96;61.85;100276.91;7397583;19;1455;-42
2023/08/03 05:15:41;;;;;;;;;;;;;;;25.93;62.19;100274.63;7393529;19;1437;-42
2023/08/03 05:18:10;;;;;;;;;;;;;;;25.90;61.92;100266.81;7394737;19;1191;-42
2023/08/03 05:20:38;;;;;;;;;;;;;;;25.94;62.23;100276.28;7396450;19;1542;-42
2023/08/03 05:23:11;;;;;;;;;;;;;;;25.82;62.32;100277.78;7395644;19;1863;-42
2023/08/03 05:25:40;;;;;;;;;;;;;;;25.87;62.34;100287.03;7396551;19;1198;-42
2023/08/03 05:28:11;;;;;;;;;;;;;;;25.75;62.56;100283.16;7396548;19;1178;-42
2023/08/03 05:30:39;;;;;;;;;;;;;;;25.87;62.39;100287.03;7396452;19;1569;-42
2023/08/03 05:33:08;;;;;;;;;;;;;;;25.72;62.54;100287.06;7396633;19;2040;-42
2023/08/03 05:35:36;;;;;;;;;;;;;;;25.77;62.48;100291.91;7396716;19;1206;-42
2023/08/03 05:38:04;;;;;;;;;;;;;;;25.85;62.41;100296.38;7396224;19;1269;-42
2023/08/03 05:40:32;;;;;;;;;;;;;;;25.74;62.83;100289.59;7395721;19;1285;-42
2023/08/03 05:43:01;;;;;;;;;;;;;;;25.73;62.90;100298.75;7395135;19;1847;-42
2023/08/03 05:45:39;;;;;;;;;;;;;;;25.60;63.11;100294.00;7396085;19;1516;-42
2023/08/03 05:48:13;;;;;;;;;;;;;;;25.69;63.10;100322.66;7396739;19;1942;-42
2023/08/03 05:50:43;;;;;;;;;;;;;;;25.64;63.07;100319.66;7397092;19;1430;-42
2023/08/03 05:53:12;;;;;;;;;;;;;;;25.65;63.15;100302.41;7395866;19;1379;-42
2023/08/03 05:55:40;;;;;;;;;;;;;;;25.69;62.81;100311.84;7396125;19;1796;-42
2023/08/03 05:58:11;;;;;;;;;;;;;;;25.70;62.62;100297.25;7395069;19;1814;-42
2023/08/03 06:00:42;;;;;;;;;;;;;;;25.75;62.72;100305.66;7394871;19;1399;-42
2023/08/03 06:03:14;;;;;;;;;;;;;;;25.69;63.01;100306.41;7395636;19;1843;-42
2023/08/03 06:05:44;;;;;;;;;;;;;;;25.64;62.90;100295.31;7404299;19;1348;-42
2023/08/03 06:08:14;;;;;;;;;;;;;;;25.78;62.90;100317.97;7402247;19;1128;-42
2023/08/03 06:10:42;;;;;;;;;;;;;;;25.83;62.69;100317.41;7404263;19;1518;-42
2023/08/03 06:13:12;;;;;;;;;;;;;;;25.74;62.97;100303.94;7402151;19;1877;-42
2023/08/03 06:15:43;;;;;;;;;;;;;;;25.73;62.90;100296.88;7402959;19;1937;-42
2023/08/03 06:18:13;;;;;;;;;;;;;;;25.69;63.18;100314.53;7400213;19;1146;-42
2023/08/03 06:20:43;;;;;;;;;;;;;;;25.66;62.93;100305.94;7401438;19;1548;-42
2023/08/03 06:23:11;;;;;;;;;;;;;;;25.70;62.88;100304.53;7401532;19;1868;-42
2023/08/03 06:25:40;;;;;;;;;;;;;;;25.74;62.86;100317.50;7401027;19;1673;-42
2023/08/03 06:28:08;;;;;;;;;;;;;;;25.76;62.79;100301.88;7402754;19;1742;-42
2023/08/03 06:30:37;;;;;;;;;;;;;;;25.73;62.82;100307.72;7402398;19;1047;-42
2023/08/03 06:33:10;;;;;;;;;;;;;;;25.67;63.20;100305.78;7403299;19;1610;-42
2023/08/03 06:35:39;;;;;;;;;;;;;;;25.69;63.23;100311.84;7402485;19;1482;-42
2023/08/03 06:38:08;;;;;;;;;;;;;;;25.71;63.22;100308.94;7402606;19;1750;-42
2023/08/03 06:40:39;;;;;;;;;;;;;;;25.66;63.21;100290.53;7403769;19;1021;-42
2023/08/03 06:43:07;;;;;;;;;;;;;;;25.68;63.07;100302.00;7402097;19;1854;-42
2023/08/03 06:45:36;;;;;;;;;;;;;;;25.70;62.98;100291.00;7403079;19;2255;-42
2023/08/03 06:48:04;;;;;;;;;;;;;;;25.70;63.18;100289.13;7402479;19;1842;-42
2023/08/03 06:50:35;;;;;;;;;;;;;;;25.20;63.02;100209.59;7402874;19;1839;-42
2023/08/03 06:53:04;;;;;;;;;;;;;;;25.72;63.03;100295.19;7401905;19;1524;-42
2023/08/03 06:55:33;;;;;;;;;;;;;;;25.70;63.00;100297.25;7402765;19;1502;-43
2023/08/03 06:58:01;;;;;;;;;;;;;;;25.71;63.30;100293.53;7402365;19;1549;-42
2023/08/03 07:00:30;;;;;;;;;;;;;;;25.68;63.34;100283.06;7401529;19;1273;-42
2023/08/03 07:02:58;;;;;;;;;;;;;;;25.70;63.12;100291.81;7400135;19;1855;-42
2023/08/03 07:05:26;;;;;;;;;;;;;;;25.74;63.14;100292.28;7401902;19;1469;-42
2023/08/03 07:07:57;;;;;;;;;;;;;;;25.70;63.32;100288.28;7402610;19;1226;-42
2023/08/03 07:10:26;;;;;;;;;;;;;;;25.72;63.07;100284.34;7401827;19;1607;-43
2023/08/03 07:12:54;;;;;;;;;;;;;;;25.74;63.01;100287.69;7401010;19;1209;-42
2023/08/03 07:15:22;;;;;;;;;;;;;;;25.73;62.94;100280.63;7399354;19;1485;-42
2023/08/03 07:17:50;;;;;;;;;;;;;;;25.73;63.27;100294.16;7398180;19;2157;-42
2023/08/03 07:20:19;;;;;;;;;;;;;;;25.73;63.08;100280.63;7400853;19;1459;-42
2023/08/03 07:22:48;;;;;;;;;;;;;;;25.70;63.24;100278.28;7399124;19;1852;-42
2023/08/03 07:25:19;;;;;;;;;;;;;;;25.72;63.27;100295.19;7400134;19;1831;-42
2023/08/03 07:27:48;;;;;;;;;;;;;;;25.70;63.01;100293.72;7400686;19;1600;-42
2023/08/03 07:30:16;;;;;;;;;;;;;;;25.72;63.28;100286.22;7397979;19;3030;-42
2023/08/03 07:32:44;;;;;;;;;;;;;;;25.72;63.12;100278.09;7400827;19;1332;-42
2023/08/03 07:35:13;;;;;;;;;;;;;;;25.73;63.21;100294.16;7400842;19;1532;-42
2023/08/03 07:37:41;;;;;;;;;;;;;;;25.75;63.13;100280.44;7401283;19;1122;-42
2023/08/03 07:40:10;;;;;;;;;;;;;;;25.75;63.26;100283.97;7399339;19;1181;-42
2023/08/03 07:42:41;;;;;;;;;;;;;;;25.76;63.31;100279.41;7397642;19;1843;-43
2023/08/03 07:45:10;;;;;;;;;;;;;;;25.74;63.02;100282.28;7400465;19;1533;-42
2023/08/03 07:47:38;;;;;;;;;;;;;;;25.74;63.28;100279.56;7397855;19;1292;-42
2023/08/03 07:50:07;;;;;;;;;;;;;;;25.73;63.09;100286.03;7399523;19;1568;-42
2023/08/03 07:52:36;;;;;;;;;;;;;;;25.72;63.09;100276.22;7400003;19;1482;-42
2023/08/03 07:55:04;;;;;;;;;;;;;;;25.72;63.27;100270.81;7397815;19;1285;-42
2023/08/03 07:57:33;;;;;;;;;;;;;;;25.72;63.27;100276.22;7398928;19;1194;-42
2023/08/03 08:00:06;;;;;;;;;;;;;;;25.74;63.27;100276.88;7397132;19;1201;-42
2023/08/03 08:02:34;;;;;;;;;;;;;;;25.73;63.16;100269.78;7399449;19;1845;-42
2023/08/03 08:05:03;;;;;;;;;;;;;;;25.75;62.92;100272.31;7397236;19;1288;-42
2023/08/03 08:07:32;;;;;;;;;;;;;;;25.79;63.13;100277.16;7398880;19;1188;-42
2023/08/03 08:10:00;;;;;;;;;;;;;;;25.75;63.06;100267.72;7397722;19;1277;-42
2023/08/03 08:12:28;;;;;;;;;;;;;;;25.77;63.16;100271.09;7397084;19;1333;-42
2023/08/03 08:14:56;;;;;;;;;;;;;;;25.30;62.92;100188.50;7398578;19;1126;-43
2023/08/03 08:17:27;;;;;;;;;;;;;;;25.77;62.96;100273.78;7396161;19;1319;-47
2023/08/03 08:19:55;;;;;;;;;;;;;;;25.80;62.92;100272.56;7399186;19;1621;-42
2023/08/03 08:22:24;;;;;;;;;;;;;;;25.80;63.27;100268.00;7398936;19;1844;-42
2023/08/03 08:24:52;;;;;;;;;;;;;;;25.84;62.95;100270.31;7398409;19;1040;-42
2023/08/03 08:27:20;;;;;;;;;;;;;;;25.83;63.17;100268.66;7395761;19;1489;-42
2023/08/03 08:29:49;;;;;;;;;;;;;;;25.82;62.77;100256.13;7393017;19;1557;-42
2023/08/03 08:32:17;;;;;;;;;;;;;;;25.82;63.01;100259.66;7396553;19;1624;-42
2023/08/03 08:34:48;;;;;;;;;;;;;;;25.83;62.81;100266.78;7395614;19;1478;-42
2023/08/03 08:37:16;;;;;;;;;;;;;;;25.88;62.69;100250.75;7399135;19;1177;-42
2023/08/03 08:39:45;;;;;;;;;;;;;;;25.89;62.92;100263.28;7398076;19;1607;-42
2023/08/03 08:42:15;;;;;;;;;;;;;;;25.89;62.88;100267.88;7398363;19;1849;-42
2023/08/03 08:44:43;;;;;;;;;;;;;;;25.84;63.02;100243.22;7398723;19;2082;-42
2023/08/03 08:47:11;;;;;;;;;;;;;;;25.80;63.04;100254.47;7398239;19;1353;-42
2023/08/03 08:49:39;;;;;;;;;;;;;;;25.83;63.22;100263.22;7397783;19;1382;-42
2023/08/03 08:52:12;;;;;;;;;;;;;;;25.79;62.96;100255.47;7399293;19;1380;-42
2023/08/03 08:54:40;;;;;;;;;;;;;;;25.77;63.25;100245.88;7398538;19;1930;-42
2023/08/03 08:57:09;;;;;;;;;;;;;;;25.79;63.21;100251.94;7399785;19;1012;-42
2023/08/03 08:59:37;;;;;;;;;;;;;;;25.82;63.28;100264.25;7398534;19;1581;-42
2023/08/03 09:02:05;;;;;;;;;;;;;;;25.80;63.27;100262.59;7398378;19;1830;-42
2023/08/03 09:04:34;;;;;;;;;;;;;;;25.79;63.03;100269.03;7397857;19;1854;-42
2023/08/03 09:07:03;;;;;;;;;;;;;;;25.80;62.97;100259.88;7397917;19;1837;-42
2023/08/03 09:09:35;;;;;;;;;;;;;;;25.83;63.16;100263.22;7396250;19;1853;-42
2023/08/03 09:12:03;;;;;;;;;;;;;;;25.80;62.96;100249.03;7396552;19;1423;-42
2023/08/03 09:14:31;;;;;;;;;;;;;;;25.82;63.23;100256.94;7397010;19;1264;-42
2023/08/03 09:17:17;;;;;;;;;;;;;;;25.80;63.31;100249.03;7397072;19;1114;-42
2023/08/03 09:19:45;;;;;;;;;;;;;;;25.80;63.30;100249.03;7394804;19;1509;-42
2023/08/03 09:22:13;;;;;;;;;;;;;;;25.79;63.09;100251.94;7398203;19;1079;-42
2023/08/03 09:24:46;;;;;;;;;;;;;;;25.79;63.26;100250.06;7396992;19;1806;-42
2023/08/03 09:27:17;;;;;;;;;;;;;;;25.84;63.13;100249.47;7395497;19;1486;-42
2023/08/03 09:29:46;;;;;;;;;;;;;;;25.82;63.29;100248.00;7395803;19;1498;-42
2023/08/03 09:32:14;;;;;;;;;;;;;;;25.82;62.98;100250.72;7396348;19;1521;-42
2023/08/03 09:34:44;;;;;;;;;;;;;;;25.82;63.14;100253.41;7396130;19;1276;-42
2023/08/03 09:37:14;;;;;;;;;;;;;;;25.80;62.92;100251.75;7397095;19;1613;-42
2023/08/03 09:39:57;;;;;;;;;;;;;;;25.80;63.19;100249.03;7402551;19;1791;-42
2023/08/03 09:42:27;;;;;;;;;;;;;;;25.80;63.41;100246.34;7402519;19;1842;-42
2023/08/03 09:44:56;;;;;;;;;;;;;;;25.78;63.07;100251.09;7404176;19;1680;-42
2023/08/03 09:47:25;;;;;;;;;;;;;;;25.83;63.31;100241.56;7401322;19;1544;-42
2023/08/03 09:49:53;;;;;;;;;;;;;;;25.81;63.28;100239.03;7404386;19;1418;-42
2023/08/03 09:52:24;;;;;;;;;;;;;;;25.84;63.01;100249.47;7404738;19;1684;-42
2023/08/03 09:55:00;;;;;;;;;;;;;;;25.84;63.25;100232.38;7404373;19;1359;-42
2023/08/03 09:57:30;;;;;;;;;;;;;;;25.86;63.00;100247.41;7404259;19;1766;-42
2023/08/03 10:00:05;;;;;;;;;;;;;;;25.82;63.09;100235.28;7404629;19;1775;-42
2023/08/03 10:02:37;;;;;;;;;;;;;;;25.83;63.19;100245.09;7403491;19;1870;-42
2023/08/03 10:05:06;;;;;;;;;;;;;;;25.79;63.39;100243.81;7403996;19;1079;-42
2023/08/03 10:07:39;;;;;;;;;;;;;;;25.79;63.19;100238.41;7400418;19;1441;-42
2023/08/03 10:10:13;;;;;;;;;;;;;;;25.79;63.43;100228.38;7402992;19;1612;-42
2023/08/03 10:12:46;;;;;;;;;;;;;;;25.78;63.18;100213.19;7402455;19;1545;-42
2023/08/03 10:15:14;;;;;;;;;;;;;;;25.80;63.30;100221.97;7402176;19;1605;-42
2023/08/03 10:17:43;;;;;;;;;;;;;;;25.78;63.36;100221.31;7401821;19;1498;-42
2023/08/03 10:20:12;;;;;;;;;;;;;;;25.83;63.33;100218.00;7401385;19;1542;-42
2023/08/03 10:22:40;;;;;;;;;;;;;;;25.82;63.22;100215.50;7400287;19;1847;-42
2023/08/03 10:25:21;;;;;;;;;;;;;;;25.80;63.55;100211.13;7402475;19;1552;-42
2023/08/03 10:28:04;;;;;;;;;;;;;;;25.79;63.25;100203.19;7403142;19;1529;-42
2023/08/03 10:31:03;;;;;;;;;;;;;;;25.80;63.37;100200.28;7402763;19;1268;-42
2023/08/03 10:33:46;;;;;;;;;;;;;;;25.77;63.52;100194.41;7402416;19;1567;-42
2023/08/03 10:36:34;;;;;;;;;;;;;;;25.79;63.39;100187.75;7401899;19;1645;-42
2023/08/03 10:39:06;;;;;;;;;;;;;;;25.83;63.10;100200.94;7401722;19;1288;-42
2023/08/03 10:41:38;;;;;;;;;;;;;;;25.82;63.14;100183.00;7402244;19;1205;-42
2023/08/03 10:44:22;;;;;;;;;;;;;;;25.84;63.19;100180.91;7400541;19;1851;-42
2023/08/03 10:46:50;;;;;;;;;;;;;;;25.80;63.37;100184.03;7402450;19;1620;-42
2023/08/03 10:49:34;;;;;;;;;;;;;;;25.82;63.27;100197.38;7399984;19;1624;-42
2023/08/03 10:52:17;;;;;;;;;;;;;;;25.82;63.44;100185.69;7401726;19;1238;-42
2023/08/03 10:54:46;;;;;;;;;;;;;;;25.88;63.39;100168.66;7401679;19;1553;-42
2023/08/03 10:57:18;;;;;;;;;;;;;;;25.86;63.23;100184.28;7402205;19;1616;-42
2023/08/03 10:59:47;;;;;;;;;;;;;;;25.83;63.20;100181.97;7399416;19;1605;-42
2023/08/03 11:02:18;;;;;;;;;;;;;;;25.85;63.39;100178.03;7401463;19;1493;-42
2023/08/03 11:04:47;;;;;;;;;;;;;;;25.90;63.38;100169.31;7400529;19;1867;-42
2023/08/03 11:07:17;;;;;;;;;;;;;;;25.82;63.44;100164.03;7399173;19;1573;-42
2023/08/03 11:09:46;;;;;;;;;;;;;;;25.89;63.08;100171.19;7401325;19;1142;-42
2023/08/03 11:12:17;;;;;;;;;;;;;;;25.86;63.21;100163.44;7399549;19;1474;-42
2023/08/03 11:14:46;;;;;;;;;;;;;;;25.82;63.29;100148.59;7400775;19;1313;-42
2023/08/03 11:17:16;;;;;;;;;;;;;;;25.88;63.49;100163.25;7399661;19;1229;-42
2023/08/03 11:19:46;;;;;;;;;;;;;;;25.86;63.32;100149.88;7401296;19;1621;-42
2023/08/03 11:22:14;;;;;;;;;;;;;;;25.87;63.25;100159.72;7399205;19;1077;-42
2023/08/03 11:24:43;;;;;;;;;;;;;;;25.89;63.49;100145.97;7399163;19;1873;-42
2023/08/03 11:27:12;;;;;;;;;;;;;;;25.85;63.58;100148.22;7401206;19;1619;-42
2023/08/03 11:29:43;;;;;;;;;;;;;;;25.81;63.41;100133.41;7400631;19;1230;-42
2023/08/03 11:32:12;;;;;;;;;;;;;;;25.83;63.28;100136.75;7400615;19;1607;-42
2023/08/03 11:34:40;;;;;;;;;;;;;;;25.84;63.49;100151.13;7400803;19;1241;-42
2023/08/03 11:37:08;;;;;;;;;;;;;;;25.85;63.46;100150.09;7400064;19;1561;-42
2023/08/03 11:39:37;;;;;;;;;;;;;;;25.90;63.44;100144.94;7399933;19;1221;-42
2023/08/03 11:42:05;;;;;;;;;;;;;;;25.90;63.20;100139.50;7400179;19;1357;-43
2023/08/03 11:44:39;;;;;;;;;;;;;;;25.91;63.56;100130.41;7399972;19;1859;-42
2023/08/03 11:47:10;;;;;;;;;;;;;;;25.84;63.29;100119.44;7400884;19;1074;-42
2023/08/03 11:49:39;;;;;;;;;;;;;;;25.83;63.55;100122.38;7401335;19;1804;-42
2023/08/03 11:52:08;;;;;;;;;;;;;;;25.85;63.73;100125.72;7399808;19;1609;-42
2023/08/03 11:54:39;;;;;;;;;;;;;;;25.85;63.54;100117.59;7400314;19;1909;-42
2023/08/03 12:00:07;;;;;;;;;;;;;;;25.84;63.49;100113.22;7394488;19;1419;-42
2023/08/03 12:02:43;;;;;;;;;;;;;;;25.92;63.38;100113.09;7398559;19;1795;-42
2023/08/03 12:05:11;;;;;;;;;;;;;;;26.01;63.09;100114.63;7400036;19;1856;-42
2023/08/03 12:07:39;;;;;;;;;;;;;;;25.94;63.06;100108.31;7400680;19;1829;-42
2023/08/03 12:10:13;;;;;;;;;;;;;;;25.92;63.49;100115.78;7399354;19;1850;-42
2023/08/03 12:12:43;;;;;;;;;;;;;;;25.86;63.59;100122.81;7399505;19;1835;-42
2023/08/03 12:15:11;;;;;;;;;;;;;;;25.82;63.63;100109.88;7399453;19;1842;-42
2023/08/03 12:17:42;;;;;;;;;;;;;;;25.85;63.70;100110.31;7397521;19;1822;-42
2023/08/03 12:20:11;;;;;;;;;;;;;;;25.87;63.76;100107.41;7398768;19;1541;-42
2023/08/03 12:22:40;;;;;;;;;;;;;;;25.87;63.43;100099.28;7398336;19;1563;-42
2023/08/03 12:25:08;;;;;;;;;;;;;;;25.90;63.55;100096.16;7396653;19;1841;-42
2023/08/03 12:27:37;;;;;;;;;;;;;;;25.87;63.43;100102.00;7398560;19;1878;-42
2023/08/03 12:30:05;;;;;;;;;;;;;;;25.85;63.75;100091.34;7398533;19;1233;-42
2023/08/03 12:32:33;;;;;;;;;;;;;;;25.88;63.79;100095.53;7398312;19;1545;-42
2023/08/03 12:35:04;;;;;;;;;;;;;;;25.90;63.42;100080.78;7399486;19;1034;-42
2023/08/03 12:37:33;;;;;;;;;;;;;;;25.95;63.23;100072.06;7396473;19;1261;-42
2023/08/03 12:40:02;;;;;;;;;;;;;;;25.91;63.74;100081.63;7397625;19;1275;-42
2023/08/03 12:42:30;;;;;;;;;;;;;;;25.89;63.67;100094.50;7397568;19;1209;-42
2023/08/03 12:44:59;;;;;;;;;;;;;;;25.87;63.84;100080.31;7397315;19;1855;-42
2023/08/03 12:47:27;;;;;;;;;;;;;;;25.93;63.61;100087.69;7398075;19;1542;-42
2023/08/03 12:49:58;;;;;;;;;;;;;;;25.89;63.56;100079.09;7398264;19;1091;-42
2023/08/03 12:52:29;;;;;;;;;;;;;;;25.93;63.42;100079.56;7399058;19;1873;-42
2023/08/03 12:54:58;;;;;;;;;;;;;;;25.89;63.48;100087.22;7397471;19;1261;-42
2023/08/03 12:57:26;;;;;;;;;;;;;;;25.86;63.58;100073.22;7397457;19;1292;-42
2023/08/03 12:59:55;;;;;;;;;;;;;;;25.90;63.89;100077.19;7397206;19;1528;-42
2023/08/03 13:02:23;;;;;;;;;;;;;;;25.93;63.51;100068.72;7397241;19;1639;-42